Sea Cloud II — 9HUE6 — position and weather

sailwx.info

Track history (hours):
 
Tides and Currents Weather Stations Pressure Air Temp Water Temp Dewpoint Dewpoint Depression Visibility Wind Speed Wind Dir Waves Ship Positions

Sea Cloud II

Ship's website: http://www.seacloud.com/en/the-ships/sea-cloud-ii.html

Last reported at 2017-Aug-17 01:30 UTC. Time now 2017-Aug-17 01:55 UTC.
Position N 55°56' E 007°22'.

Length 117 m; draft 6 m.

Type: Passenger vessel. MMSI: 248953000.

Date/timePositionNaut miles runAvg speedWind from/ knotsBaromVisibWave heightAir tempDewpointWater temp
2017-Aug-17 01:30N 55°56' E 007°22'611.0
2017-Aug-17 01:00N 56°02' E 007°25'10611.0
2017-Aug-16 15:25N 57°44' E 008°09'3 7.5
2017-Aug-16 15:00N 57°48' E 008°10'2 4.1
2017-Aug-16 14:29N 57°50' E 008°09'2 4.6
2017-Aug-16 14:00N 57°52' E 008°08'3 5.2
2017-Aug-16 13:30N 57°54' E 008°08'3 5.9
2017-Aug-16 13:00N 57°57' E 008°08'3 5.9
2017-Aug-16 12:30N 58°00' E 008°07'3 5.3
2017-Aug-16 12:00N 58°03' E 008°06'4 8.4
2017-Aug-16 11:30N 58°06' E 008°02'2 3.5
2017-Aug-16 10:58N 58°08' E 007°60'0 0.0
2017-Aug-16 10:28N 58°08' E 007°60'0 0.0
2017-Aug-16 09:58N 58°08' E 007°60'0 0.0
2017-Aug-16 09:28N 58°08' E 007°60'0 0.0
2017-Aug-16 08:58N 58°08' E 007°60'0 0.0
2017-Aug-16 08:28N 58°08' E 007°60'0 0.0
2017-Aug-16 07:58N 58°08' E 007°60'0 0.0
2017-Aug-16 07:28N 58°08' E 007°60'0 0.0
2017-Aug-16 06:58N 58°08' E 007°60'0 0.0
2017-Aug-16 06:28N 58°08' E 007°60'0 0.1
2017-Aug-16 06:00N 58°08' E 007°60'3 6.4
2017-Aug-16 05:30N 58°05' E 008°04'4 7.4
2017-Aug-16 05:00N 58°03' E 008°08'2 4.4
2017-Aug-16 04:30N 58°02' E 008°12'2 4.4
2017-Aug-16 04:00N 58°01' E 008°16'3 6.4
2017-Aug-16 03:30N 57°59' E 008°21'3 6.2
2017-Aug-16 03:00N 57°58' E 008°27'72 7.7
2017-Aug-15 17:33N 57°47' E 010°41'012.7
2017-Aug-15 17:30N 57°47' E 010°42'4 7.1
2017-Aug-15 17:00N 57°43' E 010°41'3 6.0
2017-Aug-15 16:29N 57°43' E 010°35'0 0.0
2017-Aug-15 15:22N 57°43' E 010°35'0 0.0
2017-Aug-15 13:55N 57°43' E 010°35'0 0.0
2017-Aug-15 12:58N 57°43' E 010°35'0 0.0
2017-Aug-15 11:46N 57°43' E 010°35'0 0.0
2017-Aug-15 11:25N 57°43' E 010°35'0 0.0
2017-Aug-15 10:56N 57°43' E 010°35'2 4.1
2017-Aug-15 10:31N 57°43' E 010°39'3 6.1
2017-Aug-15 10:00N 57°44' E 010°44'2 3.1
2017-Aug-15 09:29N 57°42' E 010°45'3 6.4
2017-Aug-15 08:58N 57°39' E 010°47'3 6.8
2017-Aug-15 08:30N 57°38' E 010°52'3 6.8
2017-Aug-15 08:00N 57°36' E 010°58'3 6.7
2017-Aug-15 07:31N 57°35' E 011°04'3 6.6
2017-Aug-15 06:59N 57°34' E 011°10'3 6.3
2017-Aug-15 06:31N 57°33' E 011°15'2 4.1
2017-Aug-15 06:00N 57°32' E 011°19'2 3.5
2017-Aug-15 05:31N 57°31' E 011°21'2 4.0
2017-Aug-15 05:00N 57°30' E 011°24'3 6.5
2017-Aug-15 04:30N 57°27' E 011°27'4 7.4
2017-Aug-15 03:59N 57°23' E 011°30'3 7.4
2017-Aug-15 03:31N 57°20' E 011°32'4 7.5
2017-Aug-15 03:00N 57°16' E 011°34'4 7.5
2017-Aug-15 02:30N 57°13' E 011°36'4 7.4
2017-Aug-15 02:00N 57°09' E 011°39'4 7.3
2017-Aug-15 01:30N 57°06' E 011°41'4 8.1
2017-Aug-15 00:59N 57°02' E 011°44'4 7.7
2017-Aug-15 00:31N 56°59' E 011°46'7 7.6
2017-Aug-14 23:36N 56°52' E 011°50'2 7.7
2017-Aug-14 23:20N 56°50' E 011°52'3 7.9
2017-Aug-14 23:00N 56°48' E 011°53'43 8.7
2017-Aug-14 18:05N 56°09' E 012°28'312.0
2017-Aug-14 17:52N 56°08' E 012°31'412.5
2017-Aug-14 17:31N 56°05' E 012°37'611.7
2017-Aug-14 17:00N 55°59' E 012°42'611.8
2017-Aug-14 16:30N 55°54' E 012°45'611.6
2017-Aug-14 16:01N 55°48' E 012°42'611.5
2017-Aug-14 15:30N 55°43' E 012°38'2 3.6
2017-Aug-14 14:58N 55°41' E 012°36'0 0.0
2017-Aug-14 14:28N 55°41' E 012°36'0 0.0
2017-Aug-14 13:58N 55°41' E 012°36'0 0.0
2017-Aug-14 13:28N 55°41' E 012°36'0 0.0
2017-Aug-14 12:58N 55°41' E 012°36'0 0.0
2017-Aug-14 12:28N 55°41' E 012°36'0 0.0
2017-Aug-14 12:01N 55°41' E 012°36'0 0.0
2017-Aug-14 11:28N 55°41' E 012°36'0 0.0
2017-Aug-14 10:58N 55°41' E 012°36'0 0.0
2017-Aug-14 10:28N 55°41' E 012°36'0 0.0
2017-Aug-14 09:58N 55°41' E 012°36'0 0.0
2017-Aug-14 09:28N 55°41' E 012°36'0 0.0
2017-Aug-14 08:58N 55°41' E 012°36'0 0.0
2017-Aug-14 08:28N 55°41' E 012°36'0 0.0
2017-Aug-14 07:58N 55°41' E 012°36'0 0.0
2017-Aug-14 07:28N 55°41' E 012°36'0 0.0
2017-Aug-14 06:58N 55°41' E 012°36'0 0.0
2017-Aug-14 06:28N 55°41' E 012°36'0 0.5
2017-Aug-14 06:00N 55°42' E 012°36'1 2.8
2017-Aug-14 05:30N 55°42' E 012°38'510.8
2017-Aug-14 05:00N 55°37' E 012°42'510.5
2017-Aug-14 04:30N 55°32' E 012°43'4 7.8
2017-Aug-14 04:00N 55°28' E 012°43'3 5.8
2017-Aug-14 03:30N 55°25' E 012°42'3 6.0
2017-Aug-14 03:00N 55°22' E 012°42'3 6.4
2017-Aug-14 02:30N 55°19' E 012°41'4 7.0
2017-Aug-14 02:00N 55°17' E 012°46'4 8.2
2017-Aug-14 01:30N 55°16' E 012°53'4 7.7
2017-Aug-14 01:00N 55°16' E 012°60'3 6.5
2017-Aug-14 00:30N 55°15' E 013°06'26 9.0
2017-Aug-13 21:36N 55°14' E 013°51'210.1
2017-Aug-13 21:27N 55°14' E 013°54'410.2
2017-Aug-13 21:00N 55°13' E 014°01'510.4
2017-Aug-13 20:30N 55°13' E 014°11'5 9.7
2017-Aug-13 20:00N 55°15' E 014°18'611.4
2017-Aug-13 19:30N 55°20' E 014°25'611.9
2017-Aug-13 19:00N 55°24' E 014°31'510.8
2017-Aug-13 18:31N 55°26' E 014°40'611.1
2017-Aug-13 18:00N 55°27' E 014°49'611.3
2017-Aug-13 17:30N 55°28' E 014°59'611.3
2017-Aug-13 17:00N 55°29' E 015°09'611.0
2017-Aug-13 16:30N 55°30' E 015°19'510.8
2017-Aug-13 16:00N 55°30' E 015°28'10 3.4
2017-Aug-13 12:58N 55°21' E 015°36'4 7.6
2017-Aug-13 12:30N 55°17' E 015°33'4 6.5
2017-Aug-13 11:57N 55°14' E 015°34'3 5.9
2017-Aug-13 11:30N 55°11' E 015°34'3 5.8
2017-Aug-13 11:00N 55°08' E 015°34'3 6.5
2017-Aug-13 10:30N 55°05' E 015°34'4 7.3
2017-Aug-13 09:58N 55°01' E 015°35'88 6.1
2017-Aug-12 19:41N 54°57' E 018°07'3 9.8
2017-Aug-12 19:24N 54°57' E 018°12'410.0
2017-Aug-12 19:00N 54°57' E 018°19'5 9.3
2017-Aug-12 18:30N 54°57' E 018°27'5 9.5
2017-Aug-12 18:00N 54°57' E 018°35'510.1
2017-Aug-12 17:30N 54°54' E 018°43'510.3
2017-Aug-12 17:00N 54°51' E 018°50'510.2
2017-Aug-12 16:30N 54°49' E 018°58'3 6.6
2017-Aug-12 16:00N 54°46' E 019°00'3 6.4
2017-Aug-12 15:30N 54°43' E 018°59'3 6.9
2017-Aug-12 15:00N 54°39' E 018°57'3 6.9
2017-Aug-12 14:30N 54°36' E 018°54'3 6.2
2017-Aug-12 14:00N 54°34' E 018°51'3 5.1
2017-Aug-12 13:30N 54°32' E 018°48'2 4.9
2017-Aug-12 13:00N 54°30' E 018°45'3 5.7
2017-Aug-12 12:30N 54°28' E 018°42'4 7.5
2017-Aug-12 12:01N 54°24' E 018°40'0 0.3
2017-Aug-12 11:30N 54°24' E 018°40'0 0.0
2017-Aug-12 11:00N 54°24' E 018°40'0 0.0
2017-Aug-12 10:30N 54°24' E 018°40'0 0.0
2017-Aug-12 10:00N 54°24' E 018°40'0 0.0
2017-Aug-12 09:30N 54°24' E 018°40'0 0.0
2017-Aug-12 09:00N 54°24' E 018°40'0 0.0
2017-Aug-12 08:30N 54°24' E 018°40'0 0.0
2017-Aug-12 08:00N 54°24' E 018°40'0 0.0
2017-Aug-12 07:30N 54°24' E 018°40'0 0.0
2017-Aug-12 07:00N 54°24' E 018°40'0 0.0
2017-Aug-12 06:30N 54°24' E 018°40'0 0.0
2017-Aug-12 06:00N 54°24' E 018°40'0 0.0
2017-Aug-12 05:30N 54°24' E 018°40'0 0.6
2017-Aug-12 05:01N 54°24' E 018°40'2 4.1
2017-Aug-12 04:31N 54°26' E 018°40'4 8.8
2017-Aug-12 04:01N 54°30' E 018°44'4 7.2
2017-Aug-12 03:31N 54°33' E 018°48'3 6.9
2017-Aug-12 03:01N 54°35' E 018°52'3 6.9
2017-Aug-12 02:31N 54°38' E 018°55'4 7.3
2017-Aug-12 02:01N 54°41' E 018°59'4 7.3
2017-Aug-12 01:31N 54°44' E 019°03'4 7.9
2017-Aug-12 01:01N 54°46' E 019°08'5 8.4
2017-Aug-12 00:24N 54°50' E 019°15'3 8.3
2017-Aug-12 00:01N 54°52' E 019°19'5 8.1
2017-Aug-11 23:25N 54°55' E 019°25'5 6.1
2017-Aug-11 22:34N 54°59' E 019°32'166 4.5
2017-Aug-10 09:51N 57°44' E 019°51'2 3.8
2017-Aug-10 09:21N 57°45' E 019°48'37 5.4
2017-Aug-10 02:33N 58°20' E 019°26'0 8.2
2017-Aug-10 02:30N 58°21' E 019°26'5 8.1
2017-Aug-10 01:50N 58°26' E 019°24'3 8.3
2017-Aug-10 01:30N 58°29' E 019°23'7 8.1
2017-Aug-10 00:39N 58°36' E 019°21'2 8.2
2017-Aug-10 00:23N 58°38' E 019°21'15 7.4
2017-Aug-09 22:22N 58°53' E 019°17'3 7.3
2017-Aug-09 22:00N 58°55' E 019°17'13 7.4
2017-Aug-09 20:13N 59°08' E 019°12'2 6.9
2017-Aug-09 19:58N 59°10' E 019°11'3 5.8
2017-Aug-09 19:30N 59°12' E 019°09'510.4
2017-Aug-09 19:00N 59°15' E 019°01'4 8.0
2017-Aug-09 18:30N 59°17' E 018°54'510.3
2017-Aug-09 18:00N 59°21' E 018°46'510.0
2017-Aug-09 17:31N 59°22' E 018°37'510.4
2017-Aug-09 17:01N 59°25' E 018°29'2 4.3
2017-Aug-09 16:31N 59°23' E 018°27'3 6.3
2017-Aug-09 16:00N 59°22' E 018°21'510.7
2017-Aug-09 15:30N 59°20' E 018°12'3 6.7
2017-Aug-09 15:01N 59°19' E 018°05'0 0.1
2017-Aug-09 14:28N 59°19' E 018°05'0 0.0
2017-Aug-09 13:58N 59°19' E 018°05'0 0.0
2017-Aug-09 13:28N 59°19' E 018°05'0 0.0
2017-Aug-09 12:58N 59°19' E 018°05'0 0.0
2017-Aug-09 12:25N 59°19' E 018°05'0 0.0
2017-Aug-09 11:58N 59°19' E 018°05'0 0.0
2017-Aug-09 11:28N 59°19' E 018°05'0 0.0
2017-Aug-09 10:58N 59°19' E 018°05'0 0.0
2017-Aug-09 10:28N 59°19' E 018°05'0 0.0
2017-Aug-09 09:58N 59°19' E 018°05'0 0.0
2017-Aug-09 09:22N 59°19' E 018°05'0 0.0
2017-Aug-09 08:58N 59°19' E 018°05'0 0.0
2017-Aug-09 08:28N 59°19' E 018°05'0 0.0
2017-Aug-09 07:52N 59°19' E 018°05'0 0.0
2017-Aug-09 07:28N 59°19' E 018°05'0 0.0
2017-Aug-09 06:58N 59°19' E 018°05'0 0.0
2017-Aug-09 06:28N 59°19' E 018°05'0 0.0
2017-Aug-09 05:58N 59°19' E 018°05'0 0.0
2017-Aug-09 05:28N 59°19' E 018°05'0 0.0
2017-Aug-09 04:58N 59°19' E 018°05'0 0.0
2017-Aug-09 04:22N 59°19' E 018°05'0 0.0
2017-Aug-09 03:58N 59°19' E 018°05'0 0.0
2017-Aug-09 03:28N 59°19' E 018°05'0 0.0
2017-Aug-09 02:58N 59°19' E 018°05'0 0.0
2017-Aug-09 02:28N 59°19' E 018°05'0 0.0
2017-Aug-09 01:55N 59°19' E 018°05'0 0.0
2017-Aug-09 01:28N 59°19' E 018°05'0 0.0
2017-Aug-09 00:58N 59°19' E 018°05'0 0.0
2017-Aug-09 00:28N 59°19' E 018°05'0 0.0
2017-Aug-08 23:58N 59°19' E 018°05'0 0.0
2017-Aug-08 23:28N 59°19' E 018°05'0 0.0
2017-Aug-08 22:58N 59°19' E 018°05'0 0.0
2017-Aug-08 22:28N 59°19' E 018°05'0 0.0
2017-Aug-08 21:58N 59°19' E 018°05'0 0.0
2017-Aug-08 21:28N 59°19' E 018°05'0 0.0
2017-Aug-08 20:58N 59°19' E 018°05'0 0.0
2017-Aug-08 20:28N 59°19' E 018°05'0 0.0
2017-Aug-08 19:58N 59°19' E 018°05'0 0.0
2017-Aug-08 19:28N 59°19' E 018°05'1 2.2
2017-Aug-08 19:01N 59°19' E 018°07'5 9.5
2017-Aug-08 18:30N 59°22' E 018°15'5 9.6
2017-Aug-08 18:00N 59°22' E 018°25'3 6.3
2017-Aug-08 17:30N 59°25' E 018°25'2 5.0
2017-Aug-08 17:00N 59°26' E 018°29'611.3
2017-Aug-08 16:30N 59°22' E 018°37'510.4
2017-Aug-08 16:00N 59°21' E 018°47'510.8
2017-Aug-08 15:30N 59°17' E 018°54'5 9.9
2017-Aug-08 15:00N 59°15' E 019°03'2 4.5
2017-Aug-08 14:30N 59°13' E 019°06'2 3.8
2017-Aug-08 14:00N 59°13' E 019°10'2 3.8
2017-Aug-08 13:30N 59°12' E 019°13'2 3.5
2017-Aug-08 13:00N 59°11' E 019°14'2 3.5
2017-Aug-08 12:30N 59°09' E 019°15'2 3.8
2017-Aug-08 12:01N 59°07' E 019°16'2 3.4
2017-Aug-08 11:30N 59°07' E 019°19'2 3.4
2017-Aug-08 11:00N 59°06' E 019°23'2 3.1
2017-Aug-08 10:30N 59°05' E 019°25'2 3.4
2017-Aug-08 10:00N 59°05' E 019°28'2 3.4
2017-Aug-08 09:30N 59°04' E 019°31'2 3.8
2017-Aug-08 08:52N 59°03' E 019°35'1 4.0
2017-Aug-08 08:30N 59°02' E 019°38'2 4.2
2017-Aug-08 08:00N 59°01' E 019°41'2 4.5
2017-Aug-08 07:30N 59°00' E 019°45'3 6.2
2017-Aug-08 07:00N 58°58' E 019°50'3 5.7
2017-Aug-08 06:30N 58°56' E 019°54'2 3.4
2017-Aug-08 06:00N 58°55' E 019°57'2 4.4
2017-Aug-08 05:30N 58°56' E 020°01'3 6.9
2017-Aug-08 05:00N 58°57' E 020°07'3 6.9
2017-Aug-08 04:30N 58°58' E 020°13'3 6.8
2017-Aug-08 04:00N 58°59' E 020°19'4 7.3
2017-Aug-08 03:30N 59°01' E 020°26'510.7
2017-Aug-08 03:00N 59°02' E 020°36'510.6
2017-Aug-08 02:30N 59°04' E 020°46'510.4
2017-Aug-08 02:00N 59°05' E 020°55'510.2
2017-Aug-08 01:30N 59°07' E 021°05'510.1
2017-Aug-08 01:00N 59°09' E 021°14'510.0
2017-Aug-08 00:30N 59°11' E 021°23'5 9.8
2017-Aug-08 00:00N 59°13' E 021°32'5 9.7
2017-Aug-07 23:30N 59°14' E 021°41'5 9.6
2017-Aug-07 23:00N 59°16' E 021°50'5 9.6
2017-Aug-07 22:30N 59°16' E 021°59'5 9.6
2017-Aug-07 22:00N 59°18' E 022°08'5 9.6
2017-Aug-07 21:31N 59°18' E 022°17'5 9.7
2017-Aug-07 21:00N 59°19' E 022°27'510.0
2017-Aug-07 20:30N 59°20' E 022°36'612.0
2017-Aug-07 20:00N 59°21' E 022°48'510.2
2017-Aug-07 19:30N 59°22' E 022°58'4 9.0
2017-Aug-07 19:00N 59°23' E 023°07'510.5
2017-Aug-07 18:30N 59°24' E 023°17'510.1
2017-Aug-07 18:00N 59°25' E 023°26'5 9.9
2017-Aug-07 17:30N 59°26' E 023°36'510.0
2017-Aug-07 17:00N 59°27' E 023°46'510.2
2017-Aug-07 16:30N 59°28' E 023°55'510.2
2017-Aug-07 16:00N 59°29' E 024°05'2 4.4
2017-Aug-07 15:30N 59°30' E 024°09'2 3.9
2017-Aug-07 15:00N 59°32' E 024°08'2 3.9
2017-Aug-07 14:30N 59°34' E 024°07'2 4.4
2017-Aug-07 14:00N 59°36' E 024°05'2 4.8
2017-Aug-07 13:30N 59°39' E 024°04'2 4.7
2017-Aug-07 13:00N 59°41' E 024°03'2 4.8
2017-Aug-07 12:30N 59°43' E 024°01'2 4.8
2017-Aug-07 12:00N 59°45' E 023°59'2 4.3
2017-Aug-07 11:30N 59°47' E 023°58'2 3.1
2017-Aug-07 11:00N 59°49' E 023°57'3 5.5
2017-Aug-07 10:30N 59°48' E 024°02'5 9.8
2017-Aug-07 10:00N 59°47' E 024°11'5 9.7
2017-Aug-07 09:30N 59°47' E 024°21'5 9.8
2017-Aug-07 09:00N 59°48' E 024°30'5 9.9
2017-Aug-07 08:30N 59°49' E 024°40'5 9.9
2017-Aug-07 08:00N 59°50' E 024°49'5 9.9
2017-Aug-07 07:30N 59°51' E 024°59'510.2
2017-Aug-07 07:00N 59°51' E 025°09'510.5
2017-Aug-07 06:30N 59°52' E 025°19'510.2
2017-Aug-07 06:00N 59°53' E 025°30'510.4
2017-Aug-07 05:30N 59°54' E 025°40'510.6
2017-Aug-07 05:00N 59°56' E 025°50'510.5
2017-Aug-07 04:30N 59°57' E 025°60'510.6
2017-Aug-07 04:00N 59°58' E 026°10'510.6
2017-Aug-07 03:30N 59°60' E 026°20'510.6
2017-Aug-07 03:00N 60°01' E 026°31'510.3
2017-Aug-07 02:30N 60°01' E 026°41'510.2
2017-Aug-07 02:00N 60°00' E 026°51'  
Track history (hours):
 
Tides and Currents Weather Stations Pressure Air Temp Water Temp Dewpoint Dewpoint Depression Visibility Wind Speed Wind Dir Waves Ship Positions

Sea Cloud II

Ship's website: http://www.seacloud.com/en/the-ships/sea-cloud-ii.html

Last reported at 2017-Aug-17 01:30 UTC. Time now 2017-Aug-17 01:55 UTC.
Position N 55°56' E 007°22'.

Length 117 m; draft 6 m.

Type: Passenger vessel. MMSI: 248953000.

Date/timePositionNaut miles runAvg speedWind from/ knotsBaromVisibWave heightAir tempDewpointWater temp
2017-Aug-17 01:30N 55°56' E 007°22'611.0
2017-Aug-17 01:00N 56°02' E 007°25'10611.0
2017-Aug-16 15:25N 57°44' E 008°09'3 7.5
2017-Aug-16 15:00N 57°48' E 008°10'2 4.1
2017-Aug-16 14:29N 57°50' E 008°09'2 4.6
2017-Aug-16 14:00N 57°52' E 008°08'3 5.2
2017-Aug-16 13:30N 57°54' E 008°08'3 5.9
2017-Aug-16 13:00N 57°57' E 008°08'3 5.9
2017-Aug-16 12:30N 58°00' E 008°07'3 5.3
2017-Aug-16 12:00N 58°03' E 008°06'4 8.4
2017-Aug-16 11:30N 58°06' E 008°02'2 3.5
2017-Aug-16 10:58N 58°08' E 007°60'0 0.0
2017-Aug-16 10:28N 58°08' E 007°60'0 0.0
2017-Aug-16 09:58N 58°08' E 007°60'0 0.0
2017-Aug-16 09:28N 58°08' E 007°60'0 0.0
2017-Aug-16 08:58N 58°08' E 007°60'0 0.0
2017-Aug-16 08:28N 58°08' E 007°60'0 0.0
2017-Aug-16 07:58N 58°08' E 007°60'0 0.0
2017-Aug-16 07:28N 58°08' E 007°60'0 0.0
2017-Aug-16 06:58N 58°08' E 007°60'0 0.0
2017-Aug-16 06:28N 58°08' E 007°60'0 0.1
2017-Aug-16 06:00N 58°08' E 007°60'3 6.4
2017-Aug-16 05:30N 58°05' E 008°04'4 7.4
2017-Aug-16 05:00N 58°03' E 008°08'2 4.4
2017-Aug-16 04:30N 58°02' E 008°12'2 4.4
2017-Aug-16 04:00N 58°01' E 008°16'3 6.4
2017-Aug-16 03:30N 57°59' E 008°21'3 6.2
2017-Aug-16 03:00N 57°58' E 008°27'72 7.7
2017-Aug-15 17:33N 57°47' E 010°41'012.7
2017-Aug-15 17:30N 57°47' E 010°42'4 7.1
2017-Aug-15 17:00N 57°43' E 010°41'3 6.0
2017-Aug-15 16:29N 57°43' E 010°35'0 0.0
2017-Aug-15 15:22N 57°43' E 010°35'0 0.0
2017-Aug-15 13:55N 57°43' E 010°35'0 0.0
2017-Aug-15 12:58N 57°43' E 010°35'0 0.0
2017-Aug-15 11:46N 57°43' E 010°35'0 0.0
2017-Aug-15 11:25N 57°43' E 010°35'0 0.0
2017-Aug-15 10:56N 57°43' E 010°35'2 4.1
2017-Aug-15 10:31N 57°43' E 010°39'3 6.1
2017-Aug-15 10:00N 57°44' E 010°44'2 3.1
2017-Aug-15 09:29N 57°42' E 010°45'3 6.4
2017-Aug-15 08:58N 57°39' E 010°47'3 6.8
2017-Aug-15 08:30N 57°38' E 010°52'3 6.8
2017-Aug-15 08:00N 57°36' E 010°58'3 6.7
2017-Aug-15 07:31N 57°35' E 011°04'3 6.6
2017-Aug-15 06:59N 57°34' E 011°10'3 6.3
2017-Aug-15 06:31N 57°33' E 011°15'2 4.1
2017-Aug-15 06:00N 57°32' E 011°19'2 3.5
2017-Aug-15 05:31N 57°31' E 011°21'2 4.0
2017-Aug-15 05:00N 57°30' E 011°24'3 6.5
2017-Aug-15 04:30N 57°27' E 011°27'4 7.4
2017-Aug-15 03:59N 57°23' E 011°30'3 7.4
2017-Aug-15 03:31N 57°20' E 011°32'4 7.5
2017-Aug-15 03:00N 57°16' E 011°34'4 7.5
2017-Aug-15 02:30N 57°13' E 011°36'4 7.4
2017-Aug-15 02:00N 57°09' E 011°39'4 7.3
2017-Aug-15 01:30N 57°06' E 011°41'4 8.1
2017-Aug-15 00:59N 57°02' E 011°44'4 7.7
2017-Aug-15 00:31N 56°59' E 011°46'7 7.6
2017-Aug-14 23:36N 56°52' E 011°50'2 7.7
2017-Aug-14 23:20N 56°50' E 011°52'3 7.9
2017-Aug-14 23:00N 56°48' E 011°53'43 8.7
2017-Aug-14 18:05N 56°09' E 012°28'312.0
2017-Aug-14 17:52N 56°08' E 012°31'412.5
2017-Aug-14 17:31N 56°05' E 012°37'611.7
2017-Aug-14 17:00N 55°59' E 012°42'611.8
2017-Aug-14 16:30N 55°54' E 012°45'611.6
2017-Aug-14 16:01N 55°48' E 012°42'611.5
2017-Aug-14 15:30N 55°43' E 012°38'2 3.6
2017-Aug-14 14:58N 55°41' E 012°36'0 0.0
2017-Aug-14 14:28N 55°41' E 012°36'0 0.0
2017-Aug-14 13:58N 55°41' E 012°36'0 0.0
2017-Aug-14 13:28N 55°41' E 012°36'0 0.0
2017-Aug-14 12:58N 55°41' E 012°36'0 0.0
2017-Aug-14 12:28N 55°41' E 012°36'0 0.0
2017-Aug-14 12:01N 55°41' E 012°36'0 0.0
2017-Aug-14 11:28N 55°41' E 012°36'0 0.0
2017-Aug-14 10:58N 55°41' E 012°36'0 0.0
2017-Aug-14 10:28N 55°41' E 012°36'0 0.0
2017-Aug-14 09:58N 55°41' E 012°36'0 0.0
2017-Aug-14 09:28N 55°41' E 012°36'0 0.0
2017-Aug-14 08:58N 55°41' E 012°36'0 0.0
2017-Aug-14 08:28N 55°41' E 012°36'0 0.0
2017-Aug-14 07:58N 55°41' E 012°36'0 0.0
2017-Aug-14 07:28N 55°41' E 012°36'0 0.0
2017-Aug-14 06:58N 55°41' E 012°36'0 0.0
2017-Aug-14 06:28N 55°41' E 012°36'0 0.5
2017-Aug-14 06:00N 55°42' E 012°36'1 2.8
2017-Aug-14 05:30N 55°42' E 012°38'510.8
2017-Aug-14 05:00N 55°37' E 012°42'510.5
2017-Aug-14 04:30N 55°32' E 012°43'4 7.8
2017-Aug-14 04:00N 55°28' E 012°43'3 5.8
2017-Aug-14 03:30N 55°25' E 012°42'3 6.0
2017-Aug-14 03:00N 55°22' E 012°42'3 6.4
2017-Aug-14 02:30N 55°19' E 012°41'4 7.0
2017-Aug-14 02:00N 55°17' E 012°46'4 8.2
2017-Aug-14 01:30N 55°16' E 012°53'4 7.7
2017-Aug-14 01:00N 55°16' E 012°60'3 6.5
2017-Aug-14 00:30N 55°15' E 013°06'26 9.0
2017-Aug-13 21:36N 55°14' E 013°51'210.1
2017-Aug-13 21:27N 55°14' E 013°54'410.2
2017-Aug-13 21:00N 55°13' E 014°01'510.4
2017-Aug-13 20:30N 55°13' E 014°11'5 9.7
2017-Aug-13 20:00N 55°15' E 014°18'611.4
2017-Aug-13 19:30N 55°20' E 014°25'611.9
2017-Aug-13 19:00N 55°24' E 014°31'510.8
2017-Aug-13 18:31N 55°26' E 014°40'611.1
2017-Aug-13 18:00N 55°27' E 014°49'611.3
2017-Aug-13 17:30N 55°28' E 014°59'611.3
2017-Aug-13 17:00N 55°29' E 015°09'611.0
2017-Aug-13 16:30N 55°30' E 015°19'510.8
2017-Aug-13 16:00N 55°30' E 015°28'10 3.4
2017-Aug-13 12:58N 55°21' E 015°36'4 7.6
2017-Aug-13 12:30N 55°17' E 015°33'4 6.5
2017-Aug-13 11:57N 55°14' E 015°34'3 5.9
2017-Aug-13 11:30N 55°11' E 015°34'3 5.8
2017-Aug-13 11:00N 55°08' E 015°34'3 6.5
2017-Aug-13 10:30N 55°05' E 015°34'4 7.3
2017-Aug-13 09:58N 55°01' E 015°35'88 6.1
2017-Aug-12 19:41N 54°57' E 018°07'3 9.8
2017-Aug-12 19:24N 54°57' E 018°12'410.0
2017-Aug-12 19:00N 54°57' E 018°19'5 9.3
2017-Aug-12 18:30N 54°57' E 018°27'5 9.5
2017-Aug-12 18:00N 54°57' E 018°35'510.1
2017-Aug-12 17:30N 54°54' E 018°43'510.3
2017-Aug-12 17:00N 54°51' E 018°50'510.2
2017-Aug-12 16:30N 54°49' E 018°58'3 6.6
2017-Aug-12 16:00N 54°46' E 019°00'3 6.4
2017-Aug-12 15:30N 54°43' E 018°59'3 6.9
2017-Aug-12 15:00N 54°39' E 018°57'3 6.9
2017-Aug-12 14:30N 54°36' E 018°54'3 6.2
2017-Aug-12 14:00N 54°34' E 018°51'3 5.1
2017-Aug-12 13:30N 54°32' E 018°48'2 4.9
2017-Aug-12 13:00N 54°30' E 018°45'3 5.7
2017-Aug-12 12:30N 54°28' E 018°42'4 7.5
2017-Aug-12 12:01N 54°24' E 018°40'0 0.3
2017-Aug-12 11:30N 54°24' E 018°40'0 0.0
2017-Aug-12 11:00N 54°24' E 018°40'0 0.0
2017-Aug-12 10:30N 54°24' E 018°40'0 0.0
2017-Aug-12 10:00N 54°24' E 018°40'0 0.0
2017-Aug-12 09:30N 54°24' E 018°40'0 0.0
2017-Aug-12 09:00N 54°24' E 018°40'0 0.0
2017-Aug-12 08:30N 54°24' E 018°40'0 0.0
2017-Aug-12 08:00N 54°24' E 018°40'0 0.0
2017-Aug-12 07:30N 54°24' E 018°40'0 0.0
2017-Aug-12 07:00N 54°24' E 018°40'0 0.0
2017-Aug-12 06:30N 54°24' E 018°40'0 0.0
2017-Aug-12 06:00N 54°24' E 018°40'0 0.0
2017-Aug-12 05:30N 54°24' E 018°40'0 0.6
2017-Aug-12 05:01N 54°24' E 018°40'2 4.1
2017-Aug-12 04:31N 54°26' E 018°40'4 8.8
2017-Aug-12 04:01N 54°30' E 018°44'4 7.2
2017-Aug-12 03:31N 54°33' E 018°48'3 6.9
2017-Aug-12 03:01N 54°35' E 018°52'3 6.9
2017-Aug-12 02:31N 54°38' E 018°55'4 7.3
2017-Aug-12 02:01N 54°41' E 018°59'4 7.3
2017-Aug-12 01:31N 54°44' E 019°03'4 7.9
2017-Aug-12 01:01N 54°46' E 019°08'5 8.4
2017-Aug-12 00:24N 54°50' E 019°15'3 8.3
2017-Aug-12 00:01N 54°52' E 019°19'5 8.1
2017-Aug-11 23:25N 54°55' E 019°25'5 6.1
2017-Aug-11 22:34N 54°59' E 019°32'166 4.5
2017-Aug-10 09:51N 57°44' E 019°51'2 3.8
2017-Aug-10 09:21N 57°45' E 019°48'37 5.4
2017-Aug-10 02:33N 58°20' E 019°26'0 8.2
2017-Aug-10 02:30N 58°21' E 019°26'5 8.1
2017-Aug-10 01:50N 58°26' E 019°24'3 8.3
2017-Aug-10 01:30N 58°29' E 019°23'7 8.1
2017-Aug-10 00:39N 58°36' E 019°21'2 8.2
2017-Aug-10 00:23N 58°38' E 019°21'15 7.4
2017-Aug-09 22:22N 58°53' E 019°17'3 7.3
2017-Aug-09 22:00N 58°55' E 019°17'13 7.4
2017-Aug-09 20:13N 59°08' E 019°12'2 6.9
2017-Aug-09 19:58N 59°10' E 019°11'3 5.8
2017-Aug-09 19:30N 59°12' E 019°09'510.4
2017-Aug-09 19:00N 59°15' E 019°01'4 8.0
2017-Aug-09 18:30N 59°17' E 018°54'510.3
2017-Aug-09 18:00N 59°21' E 018°46'510.0
2017-Aug-09 17:31N 59°22' E 018°37'510.4
2017-Aug-09 17:01N 59°25' E 018°29'2 4.3
2017-Aug-09 16:31N 59°23' E 018°27'3 6.3
2017-Aug-09 16:00N 59°22' E 018°21'510.7
2017-Aug-09 15:30N 59°20' E 018°12'3 6.7
2017-Aug-09 15:01N 59°19' E 018°05'0 0.1
2017-Aug-09 14:28N 59°19' E 018°05'0 0.0
2017-Aug-09 13:58N 59°19' E 018°05'0 0.0
2017-Aug-09 13:28N 59°19' E 018°05'0 0.0
2017-Aug-09 12:58N 59°19' E 018°05'0 0.0
2017-Aug-09 12:25N 59°19' E 018°05'0 0.0
2017-Aug-09 11:58N 59°19' E 018°05'0 0.0
2017-Aug-09 11:28N 59°19' E 018°05'0 0.0
2017-Aug-09 10:58N 59°19' E 018°05'0 0.0
2017-Aug-09 10:28N 59°19' E 018°05'0 0.0
2017-Aug-09 09:58N 59°19' E 018°05'0 0.0
2017-Aug-09 09:22N 59°19' E 018°05'0 0.0
2017-Aug-09 08:58N 59°19' E 018°05'0 0.0
2017-Aug-09 08:28N 59°19' E 018°05'0 0.0
2017-Aug-09 07:52N 59°19' E 018°05'0 0.0
2017-Aug-09 07:28N 59°19' E 018°05'0 0.0
2017-Aug-09 06:58N 59°19' E 018°05'0 0.0
2017-Aug-09 06:28N 59°19' E 018°05'0 0.0
2017-Aug-09 05:58N 59°19' E 018°05'0 0.0
2017-Aug-09 05:28N 59°19' E 018°05'0 0.0
2017-Aug-09 04:58N 59°19' E 018°05'0 0.0
2017-Aug-09 04:22N 59°19' E 018°05'0 0.0
2017-Aug-09 03:58N 59°19' E 018°05'0 0.0
2017-Aug-09 03:28N 59°19' E 018°05'0 0.0
2017-Aug-09 02:58N 59°19' E 018°05'0 0.0
2017-Aug-09 02:28N 59°19' E 018°05'0 0.0
2017-Aug-09 01:55N 59°19' E 018°05'0 0.0
2017-Aug-09 01:28N 59°19' E 018°05'0 0.0
2017-Aug-09 00:58N 59°19' E 018°05'0 0.0
2017-Aug-09 00:28N 59°19' E 018°05'0 0.0
2017-Aug-08 23:58N 59°19' E 018°05'0 0.0
2017-Aug-08 23:28N 59°19' E 018°05'0 0.0
2017-Aug-08 22:58N 59°19' E 018°05'0 0.0
2017-Aug-08 22:28N 59°19' E 018°05'0 0.0
2017-Aug-08 21:58N 59°19' E 018°05'0 0.0
2017-Aug-08 21:28N 59°19' E 018°05'0 0.0
2017-Aug-08 20:58N 59°19' E 018°05'0 0.0
2017-Aug-08 20:28N 59°19' E 018°05'0 0.0
2017-Aug-08 19:58N 59°19' E 018°05'0 0.0
2017-Aug-08 19:28N 59°19' E 018°05'1 2.2
2017-Aug-08 19:01N 59°19' E 018°07'5 9.5
2017-Aug-08 18:30N 59°22' E 018°15'5 9.6
2017-Aug-08 18:00N 59°22' E 018°25'3 6.3
2017-Aug-08 17:30N 59°25' E 018°25'2 5.0
2017-Aug-08 17:00N 59°26' E 018°29'611.3
2017-Aug-08 16:30N 59°22' E 018°37'510.4
2017-Aug-08 16:00N 59°21' E 018°47'510.8
2017-Aug-08 15:30N 59°17' E 018°54'5 9.9
2017-Aug-08 15:00N 59°15' E 019°03'2 4.5
2017-Aug-08 14:30N 59°13' E 019°06'2 3.8
2017-Aug-08 14:00N 59°13' E 019°10'2 3.8
2017-Aug-08 13:30N 59°12' E 019°13'2 3.5
2017-Aug-08 13:00N 59°11' E 019°14'2 3.5
2017-Aug-08 12:30N 59°09' E 019°15'2 3.8
2017-Aug-08 12:01N 59°07' E 019°16'2 3.4
2017-Aug-08 11:30N 59°07' E 019°19'2 3.4
2017-Aug-08 11:00N 59°06' E 019°23'2 3.1
2017-Aug-08 10:30N 59°05' E 019°25'2 3.4
2017-Aug-08 10:00N 59°05' E 019°28'2 3.4
2017-Aug-08 09:30N 59°04' E 019°31'2 3.8
2017-Aug-08 08:52N 59°03' E 019°35'1 4.0
2017-Aug-08 08:30N 59°02' E 019°38'2 4.2
2017-Aug-08 08:00N 59°01' E 019°41'2 4.5
2017-Aug-08 07:30N 59°00' E 019°45'3 6.2
2017-Aug-08 07:00N 58°58' E 019°50'3 5.7
2017-Aug-08 06:30N 58°56' E 019°54'2 3.4
2017-Aug-08 06:00N 58°55' E 019°57'2 4.4
2017-Aug-08 05:30N 58°56' E 020°01'3 6.9
2017-Aug-08 05:00N 58°57' E 020°07'3 6.9
2017-Aug-08 04:30N 58°58' E 020°13'3 6.8
2017-Aug-08 04:00N 58°59' E 020°19'4 7.3
2017-Aug-08 03:30N 59°01' E 020°26'510.7
2017-Aug-08 03:00N 59°02' E 020°36'510.6
2017-Aug-08 02:30N 59°04' E 020°46'510.4
2017-Aug-08 02:00N 59°05' E 020°55'510.2
2017-Aug-08 01:30N 59°07' E 021°05'510.1
2017-Aug-08 01:00N 59°09' E 021°14'510.0
2017-Aug-08 00:30N 59°11' E 021°23'5 9.8
2017-Aug-08 00:00N 59°13' E 021°32'5 9.7
2017-Aug-07 23:30N 59°14' E 021°41'5 9.6
2017-Aug-07 23:00N 59°16' E 021°50'5 9.6
2017-Aug-07 22:30N 59°16' E 021°59'5 9.6
2017-Aug-07 22:00N 59°18' E 022°08'5 9.6
2017-Aug-07 21:31N 59°18' E 022°17'5 9.7
2017-Aug-07 21:00N 59°19' E 022°27'510.0
2017-Aug-07 20:30N 59°20' E 022°36'612.0
2017-Aug-07 20:00N 59°21' E 022°48'510.2
2017-Aug-07 19:30N 59°22' E 022°58'4 9.0
2017-Aug-07 19:00N 59°23' E 023°07'510.5
2017-Aug-07 18:30N 59°24' E 023°17'510.1
2017-Aug-07 18:00N 59°25' E 023°26'5 9.9
2017-Aug-07 17:30N 59°26' E 023°36'510.0
2017-Aug-07 17:00N 59°27' E 023°46'510.2
2017-Aug-07 16:30N 59°28' E 023°55'510.2
2017-Aug-07 16:00N 59°29' E 024°05'2 4.4
2017-Aug-07 15:30N 59°30' E 024°09'2 3.9
2017-Aug-07 15:00N 59°32' E 024°08'2 3.9
2017-Aug-07 14:30N 59°34' E 024°07'2 4.4
2017-Aug-07 14:00N 59°36' E 024°05'2 4.8
2017-Aug-07 13:30N 59°39' E 024°04'2 4.7
2017-Aug-07 13:00N 59°41' E 024°03'2 4.8
2017-Aug-07 12:30N 59°43' E 024°01'2 4.8
2017-Aug-07 12:00N 59°45' E 023°59'2 4.3
2017-Aug-07 11:30N 59°47' E 023°58'2 3.1
2017-Aug-07 11:00N 59°49' E 023°57'3 5.5
2017-Aug-07 10:30N 59°48' E 024°02'5 9.8
2017-Aug-07 10:00N 59°47' E 024°11'5 9.7
2017-Aug-07 09:30N 59°47' E 024°21'5 9.8
2017-Aug-07 09:00N 59°48' E 024°30'5 9.9
2017-Aug-07 08:30N 59°49' E 024°40'5 9.9
2017-Aug-07 08:00N 59°50' E 024°49'5 9.9
2017-Aug-07 07:30N 59°51' E 024°59'510.2
2017-Aug-07 07:00N 59°51' E 025°09'510.5
2017-Aug-07 06:30N 59°52' E 025°19'510.2
2017-Aug-07 06:00N 59°53' E 025°30'510.4
2017-Aug-07 05:30N 59°54' E 025°40'510.6
2017-Aug-07 05:00N 59°56' E 025°50'510.5
2017-Aug-07 04:30N 59°57' E 025°60'510.6
2017-Aug-07 04:00N 59°58' E 026°10'510.6
2017-Aug-07 03:30N 59°60' E 026°20'510.6
2017-Aug-07 03:00N 60°01' E 026°31'510.3
2017-Aug-07 02:30N 60°01' E 026°41'510.2
2017-Aug-07 02:00N 60°00' E 026°51'  

Dump ship's entire track history